Time;durP1;ratioP1;P1;durP2;ratioP2;P2;SDS_P1;SDS_P2;PMS_P1;PMS_P2;Temp;Humidity;BMP_temperature;BMP_pressure;BME280_temperature;BME280_humidity;BME280_pressure;Samples;Min_cycle;Max_cycle;Signal;HPM_P1;HPM_P2
2022/01/07 00:00:18;;;;;;;15.45;5.55;;;;;;;2.43;81.85;99284.53;1772080;79;20994;-85
2022/01/07 00:02:50;;;;;;;11.68;5.78;;;;;;;2.42;82.05;99293.05;1781098;78;21139;-85
2022/01/07 00:05:17;;;;;;;9.93;4.60;;;;;;;2.42;82.02;99296.05;1831542;78;20971;-86
2022/01/07 00:07:44;;;;;;;11.80;5.33;;;;;;;2.39;80.81;99297.74;1831833;77;20952;-85
2022/01/07 00:10:14;;;;;;;10.82;5.12;;;;;;;2.45;80.56;99311.06;1820963;77;21191;-84
2022/01/07 00:12:42;;;;;;;9.00;5.20;;;;;;;2.48;80.97;99311.08;1795679;77;20960;-85
2022/01/07 00:15:10;;;;;;;13.35;5.47;;;;;;;2.51;81.04;99303.86;1785494;77;21145;-90
2022/01/07 00:17:37;;;;;;;12.80;5.33;;;;;;;2.52;81.40;99307.70;1768565;78;20988;-85
2022/01/07 00:20:08;;;;;;;10.68;5.10;;;;;;;2.51;81.85;99311.12;1768287;79;20999;-85
2022/01/07 00:22:36;;;;;;;12.73;4.87;;;;;;;2.52;81.78;99323.10;1767962;79;21069;-85
2022/01/07 00:25:05;;;;;;;15.08;6.10;;;;;;;2.53;82.11;99321.42;1750827;79;20999;-84
2022/01/07 00:27:32;;;;;;;10.93;5.17;;;;;;;2.54;82.41;99321.84;1768111;79;21062;-83
2022/01/07 00:29:59;;;;;;;9.08;4.95;;;;;;;2.54;83.11;99317.99;1767337;79;21268;-83
2022/01/07 00:32:27;;;;;;;12.20;5.53;;;;;;;2.55;83.27;99315.45;1767333;81;21063;-84
2022/01/07 00:34:54;;;;;;;12.85;6.83;;;;;;;2.57;83.65;99319.32;1767458;81;21053;-83
2022/01/07 00:37:20;;;;;;;12.60;5.85;;;;;;;2.58;83.66;99310.77;1767867;79;21166;-84
2022/01/07 00:39:47;;;;;;;16.95;6.60;;;;;;;2.58;83.39;99320.59;1740572;81;21004;-85
2022/01/07 00:42:14;;;;;;;14.15;5.80;;;;;;;2.58;82.95;99319.31;1767621;78;20984;-84
2022/01/07 00:44:41;;;;;;;15.15;6.80;;;;;;;2.57;82.80;99326.59;1766469;80;21106;-85
2022/01/07 00:47:07;;;;;;;14.00;6.22;;;;;;;2.54;82.95;99320.56;1799538;78;21003;-85
2022/01/07 00:49:35;;;;;;;17.27;5.72;;;;;;;2.52;83.64;99325.67;1773453;77;21071;31
2022/01/07 00:52:02;;;;;;;12.15;5.90;;;;;;;2.53;83.33;99332.54;1660863;85;21050;-87
2022/01/07 00:54:28;;;;;;;12.07;6.12;;;;;;;2.55;83.12;99335.12;1659082;86;21491;-86
2022/01/07 00:56:55;;;;;;;12.98;6.10;;;;;;;2.51;83.95;99341.92;1653859;84;21289;-83
2022/01/07 00:59:24;;;;;;;12.75;6.65;;;;;;;2.54;83.97;99341.09;1642482;80;21234;-87
2022/01/07 01:01:50;;;;;;;12.03;5.85;;;;;;;2.56;83.91;99344.53;1630096;87;21074;-87
2022/01/07 01:04:19;;;;;;;16.82;6.17;;;;;;;2.60;83.84;99345.01;1650076;83;21540;-86
2022/01/07 01:06:46;;;;;;;16.62;6.10;;;;;;;2.65;83.85;99348.93;1688934;84;21057;-88
2022/01/07 01:09:13;;;;;;;12.28;6.80;;;;;;;2.70;83.82;99354.95;1669978;81;21032;-84
2022/01/07 01:11:40;;;;;;;15.38;6.95;;;;;;;2.72;83.70;99357.12;1681499;83;21021;-85
2022/01/07 01:14:07;;;;;;;18.42;5.72;;;;;;;2.77;83.74;99357.61;1697604;80;21042;-84
2022/01/07 01:16:33;;;;;;;13.48;6.78;;;;;;;2.80;83.35;99369.61;1695984;81;21064;-86
2022/01/07 01:19:03;;;;;;;11.75;5.72;;;;;;;2.82;83.07;99365.78;1682613;80;21025;-85
2022/01/07 01:21:34;;;;;;;16.77;6.85;;;;;;;2.82;83.04;99368.35;1695016;80;21026;-85
2022/01/07 01:24:00;;;;;;;13.72;7.00;;;;;;;2.81;83.00;99363.64;1693661;79;21023;-85
2022/01/07 01:26:27;;;;;;;12.23;6.90;;;;;;;2.79;82.94;99361.05;1709733;80;21022;-86
2022/01/07 01:28:53;;;;;;;11.50;6.65;;;;;;;2.78;82.77;99352.90;1732661;83;21031;-87
2022/01/07 01:31:21;;;;;;;12.45;5.50;;;;;;;2.75;83.19;99363.58;1731476;79;21042;-88
2022/01/07 01:33:48;;;;;;;14.83;6.40;;;;;;;2.74;82.92;99362.70;1701933;80;21078;-88
2022/01/07 01:36:16;;;;;;;17.70;6.60;;;;;;;2.77;82.48;99369.59;1678596;80;21075;-85
2022/01/07 01:38:44;;;;;;;18.65;6.62;;;;;;;2.74;82.67;99361.41;1693797;80;21711;-85
2022/01/07 01:41:13;;;;;;;12.33;5.90;;;;;;;2.72;83.14;99366.10;1717707;80;21125;-84
2022/01/07 01:43:40;;;;;;;17.27;7.40;;;;;;;2.74;83.24;99371.69;1717840;81;21007;-85
2022/01/07 01:46:07;;;;;;;14.13;5.30;;;;;;;2.74;83.30;99377.25;1677755;80;21307;-84
2022/01/07 01:48:34;;;;;;;16.25;6.25;;;;;;;2.75;83.43;99371.28;1708716;80;21042;-89
2022/01/07 01:51:00;;;;;;;12.98;6.12;;;;;;;2.78;83.47;99377.29;1714488;82;20965;-88
2022/01/07 01:53:27;;;;;;;13.83;6.58;;;;;;;2.80;83.63;99379.88;1714390;82;21024;-91
2022/01/07 01:55:53;;;;;;;16.25;6.58;;;;;;;2.78;83.69;99377.29;1720907;82;21005;-88
2022/01/07 01:58:20;;;;;;;15.23;6.97;;;;;;;2.79;83.57;99371.75;1728759;82;21045;-88
2022/01/07 02:00:46;;;;;;;14.95;7.10;;;;;;;2.77;83.68;99377.30;1716266;82;21000;-88
2022/01/07 02:03:13;;;;;;;16.87;6.72;;;;;;;2.73;83.53;99379.39;1725356;82;20993;-89
2022/01/07 02:05:39;;;;;;;13.83;6.58;;;;;;;2.69;83.44;99381.48;1699672;82;21521;-89
2022/01/07 02:08:06;;;;;;;13.40;6.60;;;;;;;2.66;83.68;99380.16;1714395;82;21053;-89
2022/01/07 02:10:32;;;;;;;13.20;5.85;;;;;;;2.61;83.69;99380.11;1695149;83;21522;-90
2022/01/07 02:12:59;;;;;;;16.15;7.05;;;;;;;2.56;83.53;99385.17;1719533;82;21017;-88
2022/01/07 02:15:25;;;;;;;14.43;7.20;;;;;;;2.53;83.81;99381.30;1710108;82;21026;-86
2022/01/07 02:17:53;;;;;;;15.93;6.83;;;;;;;2.51;83.78;99391.13;1713476;82;20992;-90
2022/01/07 02:20:28;;;;;;;14.37;7.07;;;;;;;2.50;83.63;99377.83;1679443;82;21189;-87
2022/01/07 02:22:57;;;;;;;12.88;6.28;;;;;;;2.49;83.97;99385.11;1668163;82;21100;-88
2022/01/07 02:25:26;;;;;;;14.93;6.90;;;;;;;2.46;83.96;99373.08;1633592;83;21111;-88
2022/01/07 02:27:54;;;;;;;11.12;6.42;;;;;;;2.45;84.07;99377.79;1683188;83;21107;-86
2022/01/07 02:30:26;;;;;;;12.90;5.97;;;;;;;2.43;83.98;99379.48;1671340;83;21168;-83
2022/01/07 02:32:53;;;;;;;17.57;7.00;;;;;;;2.42;84.36;99380.30;1673122;82;21012;-85
2022/01/07 02:35:25;;;;;;;17.02;7.67;;;;;;;2.39;84.66;99375.16;1671133;83;21091;-84
2022/01/07 02:37:52;;;;;;;14.58;7.15;;;;;;;2.35;84.74;99375.95;1671527;83;21043;-84
2022/01/07 02:40:18;;;;;;;16.42;7.67;;;;;;;2.33;84.45;99374.65;1644697;85;21088;-85
2022/01/07 02:42:45;;;;;;;16.57;7.10;;;;;;;2.26;85.10;99367.70;1679208;82;21055;-84
2022/01/07 02:45:13;;;;;;;11.25;6.28;;;;;;;2.23;84.90;99373.20;1714121;80;21637;-89
2022/01/07 02:50:36;;;;;;;13.20;6.40;;;;;;;2.16;84.32;99380.83;1691921;83;21361;-86
2022/01/07 02:53:07;;;;;;;19.05;6.90;;;;;;;2.12;84.58;99380.78;1675807;82;21079;-89
2022/01/07 02:55:35;;;;;;;19.05;6.78;;;;;;;2.11;84.91;99387.62;1696498;81;21609;-84
2022/01/07 02:58:03;;;;;;;14.00;6.03;;;;;;;2.08;84.45;99387.56;1678453;82;21052;-83
2022/01/07 03:00:31;;;;;;;14.38;6.20;;;;;;;2.08;84.79;99381.58;1682813;82;21116;-85
2022/01/07 03:03:00;;;;;;;12.85;6.42;;;;;;;2.05;85.04;99386.65;1649555;84;20977;-86
2022/01/07 03:05:28;;;;;;;11.40;6.00;;;;;;;2.02;85.38;99383.63;1679846;82;21126;-85
2022/01/07 03:07:55;;;;;;;16.02;6.58;;;;;;;2.02;85.25;99395.17;1650899;84;21080;-85
2022/01/07 03:10:32;;;;;;;14.20;6.97;;;;;;;2.03;85.16;99387.05;1700933;81;21048;-85
2022/01/07 03:13:02;;;;;;;13.93;6.90;;;;;;;2.00;85.16;99395.57;1707100;81;20950;-83
2022/01/07 03:15:30;;;;;;;16.90;6.92;;;;;;;2.00;85.15;99407.11;1682827;83;20998;-84
2022/01/07 03:17:57;;;;;;;16.12;7.40;;;;;;;1.96;85.38;99412.61;1682382;83;20963;-84
2022/01/07 03:20:24;;;;;;;16.35;7.30;;;;;;;1.92;85.31;99415.97;1682557;83;21130;-84
2022/01/07 03:22:51;;;;;;;17.95;7.00;;;;;;;1.90;85.28;99415.52;1659571;84;21037;-85
2022/01/07 03:25:19;;;;;;;14.83;7.15;;;;;;;1.87;84.95;99415.06;1650667;84;21069;-85
2022/01/07 03:27:46;;;;;;;14.43;6.70;;;;;;;1.84;84.94;99424.41;1619958;86;21040;-85
2022/01/07 03:30:16;;;;;;;13.62;6.83;;;;;;;1.78;84.83;99422.17;1630545;83;21128;-82
2022/01/07 03:32:43;;;;;;;17.37;8.20;;;;;;;1.75;84.54;99424.70;1707338;80;21104;-85
2022/01/07 03:35:12;;;;;;;25.23;7.95;;;;;;;1.72;84.44;99429.77;1805257;79;21276;-83
2022/01/07 03:37:41;;;;;;;20.27;9.73;;;;;;;1.69;85.23;99433.58;1746241;79;21065;-84
2022/01/07 03:40:11;;;;;;;19.20;11.00;;;;;;;1.67;85.09;99439.11;1807056;78;21005;-84
2022/01/07 03:42:37;;;;;;;23.32;9.65;;;;;;;1.64;85.08;99439.04;1811883;79;21065;-81
2022/01/07 03:45:06;;;;;;;22.80;10.28;;;;;;;1.64;85.06;99448.44;1793595;79;21024;-81
2022/01/07 03:47:32;;;;;;;26.50;8.75;;;;;;;1.59;85.22;99446.66;1786079;79;21560;-80
2022/01/07 03:49:59;;;;;;;15.88;7.95;;;;;;;1.57;85.61;99447.06;1748696;82;20997;-80
2022/01/07 03:52:25;;;;;;;20.30;8.25;;;;;;;1.56;85.56;99454.71;1813414;79;21131;-79
2022/01/07 03:54:52;;;;;;;24.05;7.65;;;;;;;1.52;86.16;99452.94;1810850;79;21058;-83
2022/01/07 03:57:20;;;;;;;19.40;7.47;;;;;;;1.52;85.60;99460.20;1754440;79;21060;-87
2022/01/07 03:59:48;;;;;;;19.42;8.05;;;;;;;1.50;85.74;99464.86;1750081;81;21084;-86
2022/01/07 04:02:14;;;;;;;19.32;7.92;;;;;;;1.48;86.00;99465.25;1744605;79;21127;-89
2022/01/07 04:04:41;;;;;;;19.62;7.37;;;;;;;1.45;85.40;99468.60;1725328;83;20971;-83
2022/01/07 04:07:07;;;;;;;18.45;7.42;;;;;;;1.40;85.19;99467.67;1714962;82;20983;-81
2022/01/07 04:09:34;;;;;;;29.85;7.92;;;;;;;1.36;85.77;99477.42;1719277;83;21018;-80
2022/01/07 04:12:00;;;;;;;23.50;7.72;;;;;;;1.34;85.85;99476.54;1715414;81;22084;-82
2022/01/07 04:14:27;;;;;;;19.47;8.37;;;;;;;1.33;85.43;99489.77;1727311;82;20999;-81
2022/01/07 04:16:54;;;;;;;17.45;7.20;;;;;;;1.30;86.07;99490.13;1713221;81;21031;-83
2022/01/07 04:19:21;;;;;;;17.02;7.95;;;;;;;1.30;85.48;99496.53;1721349;80;20998;-81
2022/01/07 04:21:49;;;;;;;14.38;7.35;;;;;;;1.26;85.56;99505.84;1727749;80;21041;-79
2022/01/07 04:24:16;;;;;;;15.35;8.50;;;;;;;1.23;85.96;99508.34;1721725;79;21137;-80
2022/01/07 04:26:43;;;;;;;18.80;8.23;;;;;;;1.19;85.86;99515.13;1728198;79;21083;-82
2022/01/07 04:29:11;;;;;;;21.82;8.18;;;;;;;1.14;86.29;99516.72;1743077;79;21054;-83
2022/01/07 04:31:38;;;;;;;19.05;7.53;;;;;;;1.10;86.33;99521.34;1727083;79;21093;-85
2022/01/07 04:34:04;;;;;;;18.60;8.65;;;;;;;1.07;86.25;99513.58;1703188;84;21002;-85
2022/01/07 04:36:32;;;;;;;21.80;8.73;;;;;;;1.05;86.31;99510.55;1693096;84;21102;-88
2022/01/07 04:38:58;;;;;;;19.07;8.10;;;;;;;1.04;85.83;99512.68;1689008;82;21084;-82
2022/01/07 04:41:24;;;;;;;15.55;7.50;;;;;;;1.01;85.43;99510.90;1735124;78;21084;-82
2022/01/07 04:43:51;;;;;;;14.90;7.37;;;;;;;0.96;85.54;99513.37;1735028;78;21049;-83
2022/01/07 04:46:17;;;;;;;17.67;7.65;;;;;;;0.91;85.98;99514.97;1735220;78;21053;-82
2022/01/07 04:49:03;;;;;;;15.40;8.03;;;;;;;0.88;86.07;99521.32;1739857;78;21141;31
2022/01/07 04:51:30;;;;;;;17.07;8.58;;;;;;;0.87;86.33;99517.44;1758224;80;21083;-83
2022/01/07 04:53:57;;;;;;;30.72;8.33;;;;;;;0.84;86.68;99518.67;1759591;80;21019;-80
2022/01/07 04:56:23;;;;;;;17.82;7.28;;;;;;;0.85;86.08;99523.80;1760231;80;21027;-81
2022/01/07 04:58:50;;;;;;;21.25;7.92;;;;;;;0.84;86.23;99519.53;1760008;80;21085;-82
2022/01/07 05:01:16;;;;;;;19.45;7.90;;;;;;;0.81;87.18;99525.00;1759074;80;21102;-82
2022/01/07 05:03:42;;;;;;;16.95;8.30;;;;;;;0.82;86.54;99527.98;1758286;80;21090;-81
2022/01/07 05:06:43;;;;;;;20.48;8.53;;;;;;;0.79;87.04;99527.09;1758306;80;21253;-82
2022/01/07 05:08:37;;;;;;;21.50;8.43;;;;;;;0.78;86.61;99527.94;1752939;80;21039;-83
2022/01/07 05:11:03;;;;;;;21.70;8.93;;;;;;;0.78;87.00;99527.09;1758305;80;21094;-80
2022/01/07 05:13:32;;;;;;;27.17;10.00;;;;;;;0.79;87.04;99527.52;1757939;80;21086;-83
2022/01/07 05:15:58;;;;;;;21.65;9.10;;;;;;;0.81;86.80;99535.23;1783297;80;20983;-82
2022/01/07 05:18:26;;;;;;;24.85;8.83;;;;;;;0.82;86.66;99533.11;1775629;80;21027;-82
2022/01/07 05:20:53;;;;;;;24.63;9.33;;;;;;;0.80;86.42;99531.82;1788847;80;20998;-82
2022/01/07 05:23:19;;;;;;;20.20;8.45;;;;;;;0.79;86.49;99539.03;1784462;80;21022;-82
2022/01/07 05:25:46;;;;;;;25.00;8.03;;;;;;;0.77;85.84;99537.72;1789840;80;20999;-80
2022/01/07 05:28:14;;;;;;;16.82;8.03;;;;;;;0.75;86.07;99543.64;1785365;80;21042;-82
2022/01/07 05:30:40;;;;;;;46.98;14.98;;;;;;;0.74;86.27;99541.93;1756028;80;21020;-82
2022/01/07 05:35:52;;;;;;;77.05;20.72;;;;;;;0.75;85.99;99538.09;1794038;80;21134;-82
2022/01/07 05:38:20;;;;;;;47.48;17.60;;;;;;;0.73;85.59;99544.88;1793739;80;21042;-81
2022/01/07 05:40:47;;;;;;;32.33;11.95;;;;;;;0.74;85.94;99551.75;1794200;80;21046;-82
2022/01/07 05:43:13;;;;;;;21.40;10.20;;;;;;;0.74;85.83;99552.17;1794686;80;21015;-81
2022/01/07 05:45:40;;;;;;;35.75;12.78;;;;;;;0.75;85.70;99555.16;1792754;79;21022;-82
2022/01/07 05:48:07;;;;;;;33.88;16.65;;;;;;;0.74;85.62;99558.56;1817472;79;21019;-82
2022/01/07 05:50:33;;;;;;;33.38;16.37;;;;;;;0.71;85.93;99559.34;1808046;79;21023;-83
2022/01/07 05:52:59;;;;;;;90.77;37.08;;;;;;;0.74;86.03;99560.70;1819979;79;21030;-81
2022/01/07 05:55:29;;;;;;;56.33;23.38;;;;;;;0.74;85.70;99568.80;1826641;79;21004;-81
2022/01/07 05:57:56;;;;;;;44.85;16.15;;;;;;;0.73;85.82;99568.34;1826673;79;20979;-82
2022/01/07 06:00:22;;;;;;;22.80;10.30;;;;;;;0.72;85.44;99579.00;1826699;79;20964;-83
2022/01/07 06:02:49;;;;;;;22.55;9.78;;;;;;;0.69;84.94;99578.91;1804361;79;21030;-81
2022/01/07 06:05:15;;;;;;;28.55;11.18;;;;;;;0.66;84.56;99580.14;1746683;82;21033;-83
2022/01/07 06:07:42;;;;;;;17.67;8.85;;;;;;;0.61;84.70;99592.38;1794337;80;21045;-81
2022/01/07 06:10:09;;;;;;;32.85;10.43;;;;;;;0.61;84.84;99591.95;1746309;82;21027;-82
2022/01/07 06:12:35;;;;;;;29.87;10.98;;;;;;;0.57;85.04;99597.84;1794517;80;21053;-83
2022/01/07 06:21:15;;;;;;;26.97;11.60;;;;;;;0.59;84.93;99612.39;1728980;79;21045;-83
2022/01/07 06:23:43;;;;;;;25.17;10.38;;;;;;;0.56;84.21;99616.17;1751022;81;21339;-82
2022/01/07 06:26:10;;;;;;;32.00;10.10;;;;;;;0.57;83.84;99620.44;1729055;80;21000;-75
2022/01/07 06:31:46;;;;;;;24.47;10.35;;;;;;;0.59;83.50;99634.56;1734219;80;21527;-80
2022/01/07 06:37:15;;;;;;;24.85;9.23;;;;;;;0.67;83.64;99634.74;1708958;79;21117;-82
2022/01/07 06:39:41;;;;;;;30.85;9.50;;;;;;;0.71;83.10;99637.82;1698851;84;21074;-82
2022/01/07 06:42:09;;;;;;;23.38;7.92;;;;;;;0.74;83.08;99643.02;1737724;77;21563;-84
2022/01/07 06:44:36;;;;;;;26.12;8.03;;;;;;;0.80;83.14;99644.45;1787462;78;21018;-85
2022/01/07 06:50:07;;;;;;;22.52;7.80;;;;;;;0.83;82.68;99643.64;1716350;80;21088;-85
2022/01/07 06:52:34;;;;;;;25.32;11.12;;;;;;;0.82;81.94;99654.69;1719221;82;21061;-83
2022/01/07 06:55:00;;;;;;;17.82;8.08;;;;;;;0.84;81.85;99651.78;1718463;82;20979;-84
2022/01/07 06:57:27;;;;;;;19.00;8.83;;;;;;;0.81;81.35;99652.55;1746687;81;21299;-83
2022/01/07 06:59:53;;;;;;;24.95;8.18;;;;;;;0.85;82.06;99653.08;1734457;82;20998;-82
2022/01/07 07:02:21;;;;;;;33.58;11.65;;;;;;;0.89;82.26;99659.98;1687286;83;21122;-83
2022/01/07 07:04:49;;;;;;;31.50;10.15;;;;;;;0.90;81.86;99669.84;1655196;86;21061;-84
2022/01/07 07:07:15;;;;;;;35.95;10.55;;;;;;;0.89;80.29;99671.52;1666699;80;21037;-85
2022/01/07 07:09:42;;;;;;;32.38;11.05;;;;;;;0.90;80.75;99675.81;1711038;80;21088;-85
2022/01/07 07:12:09;;;;;;;31.60;10.90;;;;;;;0.94;81.03;99674.20;1722860;82;21017;-86
2022/01/07 07:14:36;;;;;;;33.63;10.38;;;;;;;0.94;80.40;99676.34;1720361;82;21083;-83
2022/01/07 07:17:03;;;;;;;24.47;9.28;;;;;;;0.96;80.21;99677.66;1685256;80;21111;-86
2022/01/07 07:19:30;;;;;;;17.67;7.03;;;;;;;1.01;80.62;99681.59;1686273;85;21063;-81
2022/01/07 07:21:56;;;;;;;20.62;7.12;;;;;;;1.03;80.78;99672.25;1712807;82;21058;-82
2022/01/07 07:24:23;;;;;;;28.80;7.65;;;;;;;0.97;80.02;99679.38;1722761;82;21024;-82
2022/01/07 07:26:49;;;;;;;21.77;6.55;;;;;;;0.97;79.57;99687.05;1684103;84;21039;-83
2022/01/07 07:29:15;;;;;;;18.17;6.70;;;;;;;1.01;78.94;99689.27;1678832;84;21051;-82
2022/01/07 07:31:47;;;;;;;31.97;8.73;;;;;;;1.01;78.78;99688.85;1680869;83;20979;-81
2022/01/07 07:36:44;;;;;;;15.35;5.45;;;;;;;1.11;78.11;99688.22;1668248;82;21159;-84
2022/01/07 07:39:13;;;;;;;18.42;5.92;;;;;;;1.15;77.59;99696.45;1681964;78;21116;-89
2022/01/07 07:41:42;;;;;;;12.98;4.65;;;;;;;1.18;79.08;99696.51;1699275;80;21081;-86
2022/01/07 07:44:09;;;;;;;9.95;4.90;;;;;;;1.19;77.38;99698.25;1724020;81;21075;-88
2022/01/07 07:46:40;;;;;;;10.50;4.70;;;;;;;1.29;77.11;99690.75;1682566;82;22418;-89
2022/01/07 07:49:09;;;;;;;11.90;5.05;;;;;;;1.38;78.60;99691.81;1662610;82;21094;-88
2022/01/07 07:51:37;;;;;;;20.00;7.28;;;;;;;1.45;77.82;99693.23;1687036;81;21352;-90
2022/01/07 07:54:11;;;;;;;18.90;6.10;;;;;;;1.56;77.76;99699.45;1675571;80;21063;-89
2022/01/07 07:56:38;;;;;;;14.85;4.62;;;;;;;1.57;74.68;99699.49;1667479;82;21199;-89
2022/01/07 07:59:05;;;;;;;9.35;4.20;;;;;;;1.65;74.99;99698.77;1702172;81;21041;-90
2022/01/07 08:01:32;;;;;;;11.43;4.72;;;;;;;1.70;76.50;99686.49;1717396;80;21075;-86
2022/01/07 08:03:58;;;;;;;8.63;4.45;;;;;;;1.67;71.77;99683.89;1715916;83;21047;-89
2022/01/07 08:06:25;;;;;;;8.95;3.95;;;;;;;1.74;73.85;99691.27;1731057;81;20980;-88
2022/01/07 08:08:51;;;;;;;7.83;4.05;;;;;;;1.76;73.44;99698.58;1729751;81;21544;-87
2022/01/07 08:11:18;;;;;;;9.95;3.72;;;;;;;1.74;73.95;99678.03;1714715;84;21032;-90
2022/01/07 08:16:31;;;;;;;9.13;3.52;;;;;;;1.89;71.50;99686.45;1733250;79;20981;-85
2022/01/07 08:21:29;;;;;;;9.83;2.70;;;;;;;1.97;74.83;99696.44;1692696;83;21019;-89
2022/01/07 08:23:57;;;;;;;7.60;2.37;;;;;;;1.87;71.18;99696.21;1717334;78;21144;-89
2022/01/07 08:26:24;;;;;;;9.45;2.95;;;;;;;1.93;71.43;99696.33;1683699;79;21140;-89
2022/01/07 08:28:58;;;;;;;5.22;2.87;;;;;;;1.98;69.03;99699.43;1683823;81;21052;-90
2022/01/07 08:36:51;;;;;;;6.17;2.30;;;;;;;2.13;70.76;99709.13;1679127;83;21108;-87
2022/01/07 08:39:19;;;;;;;4.92;2.47;;;;;;;2.16;70.21;99710.87;1672106;83;21096;-86
2022/01/07 08:41:46;;;;;;;6.20;2.92;;;;;;;2.16;69.41;99724.99;1679857;84;21374;-87
2022/01/07 08:44:12;;;;;;;7.08;3.08;;;;;;;2.19;69.96;99716.94;1678894;83;21041;-90
2022/01/07 08:46:39;;;;;;;6.58;3.02;;;;;;;2.15;67.27;99726.70;1680426;84;21065;-87
2022/01/07 08:49:08;;;;;;;12.53;3.30;;;;;;;2.21;67.74;99736.61;1685308;84;21007;-85
2022/01/07 08:51:35;;;;;;;5.17;2.50;;;;;;;2.20;67.50;99726.78;1650403;86;21055;-83
2022/01/07 08:54:03;;;;;;;4.97;2.20;;;;;;;2.23;66.98;99720.83;1713626;80;21005;-90
2022/01/07 08:56:30;;;;;;;9.40;2.83;;;;;;;2.29;68.76;99727.35;1756396;80;21029;-86
2022/01/07 08:59:00;;;;;;;10.72;2.98;;;;;;;2.29;69.67;99733.77;1754303;82;21038;-90
2022/01/07 09:01:29;;;;;;;12.65;2.70;;;;;;;2.29;68.03;99727.35;1702530;80;21071;-89
2022/01/07 09:03:57;;;;;;;7.10;2.67;;;;;;;2.31;66.54;99723.14;1736398;83;21046;-90
2022/01/07 09:06:24;;;;;;;8.90;2.42;;;;;;;2.25;63.30;99725.17;1728257;80;21562;-89
2022/01/07 09:08:50;;;;;;;10.98;3.12;;;;;;;2.26;67.67;99723.47;1734370;82;21062;-92
2022/01/07 09:11:17;;;;;;;6.15;2.58;;;;;;;2.13;66.36;99720.67;1729010;82;21784;-93
2022/01/07 09:13:45;;;;;;;8.35;2.55;;;;;;;2.06;65.34;99719.24;1726136;83;21007;-93
2022/01/07 09:16:12;;;;;;;8.08;2.72;;;;;;;2.12;66.99;99712.95;1749437;79;21076;-91
2022/01/07 09:18:38;;;;;;;4.85;2.17;;;;;;;2.25;67.69;99714.02;1752170;81;21039;-93
2022/01/07 09:21:05;;;;;;;6.08;2.90;;;;;;;2.35;66.81;99722.36;1761219;80;21045;-91
2022/01/07 09:23:32;;;;;;;5.55;2.40;;;;;;;2.47;68.34;99714.02;1708458;83;21056;-91
2022/01/07 09:25:59;;;;;;;5.70;2.20;;;;;;;2.56;69.46;99711.59;1686604;81;21618;-90
2022/01/07 09:28:25;;;;;;;6.67;2.85;;;;;;;2.50;67.27;99713.63;1673638;84;21047;-93
2022/01/07 09:30:51;;;;;;;32.90;12.20;;;;;;;2.59;66.72;99703.95;1676420;83;21519;-93
2022/01/07 09:33:18;;;;;;;133.60;38.60;;;;;;;2.69;66.36;99707.11;1679575;84;21058;-92
2022/01/07 09:35:44;;;;;;;39.90;19.95;;;;;;;2.76;65.60;99709.35;1668268;83;21075;-92
2022/01/07 09:38:13;;;;;;;11.35;6.70;;;;;;;2.87;65.65;99715.97;1684932;82;21147;-90
2022/01/07 09:40:39;;;;;;;6.75;3.67;;;;;;;2.97;65.72;99707.12;1683523;83;21068;-91
2022/01/07 09:43:09;;;;;;;5.72;2.90;;;;;;;3.06;64.69;99696.11;1687229;82;21061;-85
2022/01/07 09:45:38;;;;;;;8.20;4.03;;;;;;;3.06;63.24;99693.98;1719156;81;21115;-90
2022/01/07 09:48:06;;;;;;;8.90;4.08;;;;;;;3.16;65.38;99700.97;1752392;79;21015;-83
2022/01/07 09:50:33;;;;;;;9.15;3.42;;;;;;;3.22;65.39;99701.05;1766129;78;21139;-92
2022/01/07 09:53:13;;;;;;;10.00;4.50;;;;;;;3.27;63.61;99696.86;1767478;79;21091;-92
2022/01/07 09:55:42;;;;;;;7.97;2.95;;;;;;;3.27;61.87;99694.28;1750996;81;21012;-91
2022/01/07 09:58:13;;;;;;;12.93;5.42;;;;;;;3.31;64.45;99691.34;1789215;79;21103;-91
2022/01/07 10:00:44;;;;;;;14.50;6.55;;;;;;;3.30;61.44;99689.20;1718412;77;21408;-89
2022/01/07 10:06:18;;;;;;;17.87;7.03;;;;;;;3.45;64.30;99685.11;1708196;81;21054;-92
2022/01/07 10:08:47;;;;;;;24.80;12.60;;;;;;;3.57;62.59;99680.97;1680069;81;21169;-89
2022/01/07 10:11:20;;;;;;;8.43;4.33;;;;;;;3.65;60.57;99669.93;1697708;81;21124;-90
2022/01/07 10:13:50;;;;;;;5.72;2.80;;;;;;;3.72;62.53;99664.88;1711521;80;21092;-90
2022/01/07 10:16:21;;;;;;;9.98;2.65;;;;;;;3.74;63.00;99664.48;1718077;81;21144;-91
2022/01/07 10:18:48;;;;;;;10.28;2.72;;;;;;;3.66;57.83;99669.95;1730337;79;21081;-92
2022/01/07 10:21:19;;;;;;;6.50;2.47;;;;;;;3.67;61.28;99663.95;1741017;78;21132;-89
2022/01/07 10:23:48;;;;;;;6.67;2.30;;;;;;;3.59;58.75;99669.42;1706730;80;21504;-91
2022/01/07 10:26:19;;;;;;;7.95;2.55;;;;;;;3.53;59.72;99676.64;1691042;81;21070;-91
2022/01/07 10:28:47;;;;;;;5.03;2.65;;;;;;;3.38;58.03;99671.29;1755212;80;21031;-85
2022/01/07 10:31:24;;;;;;;11.73;4.33;;;;;;;3.37;57.41;99665.72;1725093;79;21108;-91
2022/01/07 10:33:53;;;;;;;34.33;16.50;;;;;;;3.44;60.36;99658.94;1698489;79;21042;-89
2022/01/07 10:36:24;;;;;;;7.53;3.77;;;;;;;3.45;60.38;99666.69;1638966;82;21100;-85
2022/01/07 10:39:04;;;;;;;9.23;3.85;;;;;;;3.47;63.02;99656.42;1750583;80;21024;-90
2022/01/07 10:41:29;;;;;;;6.15;3.50;;;;;;;3.39;61.60;99658.47;1756716;79;21139;-85
2022/01/07 10:44:03;;;;;;;9.30;4.40;;;;;;;3.31;57.06;99652.37;1798021;79;21039;-86
2022/01/07 10:46:32;;;;;;;7.20;3.22;;;;;;;3.31;59.99;99645.09;1803158;78;20983;-85
2022/01/07 10:49:03;;;;;;;4.30;2.47;;;;;;;3.43;59.44;99644.38;1782841;79;20981;-85
2022/01/07 10:51:41;;;;;;;6.10;2.70;;;;;;;3.49;58.92;99649.16;1779981;77;21115;-84
2022/01/07 10:54:12;;;;;;;3.40;1.80;;;;;;;3.55;60.09;99647.95;1751334;78;21023;-84
2022/01/07 10:56:47;;;;;;;5.35;2.40;;;;;;;3.66;60.12;99637.81;1791246;79;21010;-88
2022/01/07 10:59:17;;;;;;;3.60;1.85;;;;;;;3.84;62.62;99638.84;1715811;81;21108;-84
2022/01/07 11:01:50;;;;;;;4.60;2.05;;;;;;;3.87;61.56;99635.03;1731466;80;21042;-85
2022/01/07 11:04:29;;;;;;;7.20;3.52;;;;;;;3.82;57.35;99635.39;1735521;81;21056;-87
2022/01/07 11:06:58;;;;;;;5.85;2.75;;;;;;;3.93;59.16;99635.09;1688587;79;21106;-89
2022/01/07 11:09:26;;;;;;;5.87;2.58;;;;;;;3.98;57.56;99634.73;1680655;80;21105;-90
2022/01/07 11:12:02;;;;;;;6.83;2.58;;;;;;;4.10;57.15;99636.13;1738965;81;21042;-91
2022/01/07 11:14:32;;;;;;;3.77;2.05;;;;;;;4.15;59.72;99630.58;1697511;80;21580;-90
2022/01/07 11:17:08;;;;;;;6.75;2.30;;;;;;;4.25;58.75;99635.39;1673482;83;21035;-84
2022/01/07 11:19:39;;;;;;;7.83;2.70;;;;;;;4.02;58.39;99628.77;1701568;80;21082;-89
2022/01/07 11:22:14;;;;;;;7.60;3.20;;;;;;;4.11;57.74;99624.97;1752357;79;21116;-91
2022/01/07 11:24:50;;;;;;;5.87;2.62;;;;;;;4.10;58.19;99633.55;1767453;79;21010;-85
2022/01/07 11:27:23;;;;;;;9.08;3.00;;;;;;;4.09;59.23;99625.38;1762337;78;21108;-91
2022/01/07 11:30:18;;;;;;;8.43;3.35;;;;;;;4.14;58.51;99623.73;1777749;79;21123;-92
2022/01/07 11:32:55;;;;;;;6.85;2.83;;;;;;;4.35;59.77;99617.03;1734327;82;21095;-85
2022/01/07 11:35:29;;;;;;;5.22;3.40;;;;;;;4.50;56.21;99614.59;1730168;79;21228;-91
2022/01/07 11:37:59;;;;;;;7.05;2.72;;;;;;;4.61;59.47;99617.67;1703135;81;21089;-89
2022/01/07 11:40:42;;;;;;;6.47;3.00;;;;;;;4.66;59.90;99606.98;1729028;80;21126;-90
2022/01/07 11:43:24;;;;;;;6.72;2.95;;;;;;;4.67;58.97;99607.41;1714224;80;21154;-88
2022/01/07 11:45:52;;;;;;;5.50;2.70;;;;;;;4.71;57.44;99604.00;1702830;82;21147;-86
2022/01/07 11:51:01;;;;;;;10.45;3.35;;;;;;;4.96;57.38;99603.73;1735059;81;21070;-90
2022/01/07 11:53:52;;;;;;;11.20;2.70;;;;;;;5.19;56.03;99594.82;1731543;81;20958;-86
2022/01/07 11:56:24;;;;;;;5.58;2.47;;;;;;;5.40;57.55;99603.52;1781512;78;21085;31
2022/01/07 11:58:56;;;;;;;7.33;2.90;;;;;;;5.63;58.22;99596.73;1706237;83;21064;-90
2022/01/07 12:01:31;;;;;;;5.95;3.12;;;;;;;5.88;54.80;99593.77;1753901;79;21087;-91
2022/01/07 12:04:27;;;;;;;6.50;3.45;;;;;;;6.88;56.00;99588.60;1733284;81;21125;-87
2022/01/07 12:06:51;;;;;;;9.20;3.20;;;;;;;7.88;48.15;99589.50;1723845;81;21008;-86
2022/01/07 12:09:25;;;;;;;6.97;2.67;;;;;;;8.51;50.41;99594.22;1748814;77;21346;-92
2022/01/07 12:12:02;;;;;;;7.10;3.50;;;;;;;9.07;49.73;99598.45;1766789;78;21143;-90
2022/01/07 12:14:38;;;;;;;8.85;4.08;;;;;;;9.61;49.02;99595.63;1714780;82;21065;-92
2022/01/07 12:17:13;;;;;;;7.12;2.92;;;;;;;10.38;50.42;99591.49;1736895;80;21550;-91
2022/01/07 12:19:53;;;;;;;5.58;3.08;;;;;;;10.55;41.29;99589.48;1752130;81;21229;-90